createdAt,value
2018-06-23T00:02:01.915Z,34.00
2018-06-23T00:04:33.870Z,35.60
2018-06-23T00:07:06.522Z,35.00
2018-06-23T00:09:38.780Z,31.80
2018-06-23T00:12:11.192Z,34.80
2018-06-23T00:14:43.493Z,31.00
2018-06-23T00:17:15.936Z,30.60
2018-06-23T00:19:48.436Z,33.40
2018-06-23T00:22:20.901Z,30.00
2018-06-23T00:24:53.300Z,31.40
2018-06-23T00:27:26.001Z,36.80
2018-06-23T00:29:58.079Z,36.80
2018-06-23T00:32:30.246Z,33.60
2018-06-23T00:35:02.600Z,34.60
2018-06-23T00:37:35.237Z,36.80
2018-06-23T00:40:07.745Z,27.20
2018-06-23T00:42:39.876Z,33.00
2018-06-23T00:45:12.173Z,40.00
2018-06-23T00:47:44.971Z,39.00
2018-06-23T00:50:17.132Z,31.00
2018-06-23T00:52:49.565Z,27.60
2018-06-23T00:55:22.151Z,33.40
2018-06-23T00:57:54.960Z,33.20
2018-06-23T01:00:27.733Z,32.60
2018-06-23T01:03:00.942Z,29.60
2018-06-23T01:05:33.369Z,35.00
2018-06-23T01:08:05.888Z,31.80
2018-06-23T01:10:37.866Z,35.80
2018-06-23T01:13:09.934Z,33.00
2018-06-23T01:15:42.278Z,37.20
2018-06-23T01:18:14.628Z,38.40
2018-06-23T01:20:47.127Z,35.60
2018-06-23T01:23:19.744Z,38.20
2018-06-23T01:25:51.660Z,40.40
2018-06-23T01:28:24.312Z,41.20
2018-06-23T01:30:56.854Z,44.80
2018-06-23T01:33:28.987Z,44.80
2018-06-23T01:36:01.335Z,45.80
2018-06-23T01:38:33.670Z,43.40
2018-06-23T01:41:05.618Z,40.00
2018-06-23T01:43:39.163Z,41.80
2018-06-23T01:46:11.330Z,37.40
2018-06-23T01:48:43.755Z,44.80
2018-06-23T01:51:15.675Z,44.00
2018-06-23T01:53:48.569Z,40.20
2018-06-23T01:56:21.093Z,39.80
2018-06-23T01:58:53.424Z,39.80
2018-06-23T02:01:25.663Z,38.40
2018-06-23T02:03:58.134Z,34.80
2018-06-23T02:06:30.256Z,40.20
2018-06-23T02:09:03.373Z,44.20
2018-06-23T02:11:35.740Z,43.00
2018-06-23T02:14:12.907Z,43.80
2018-06-23T02:16:49.438Z,36.40
2018-06-23T02:19:26.940Z,45.40
2018-06-23T02:22:03.552Z,35.40
2018-06-23T02:24:40.183Z,40.40
2018-06-23T02:27:16.858Z,43.40
2018-06-23T02:29:53.756Z,41.40
2018-06-23T02:32:30.577Z,40.00
2018-06-23T02:35:08.304Z,36.40
2018-06-23T02:37:40.750Z,38.80
2018-06-23T02:40:14.127Z,37.80
2018-06-23T02:42:46.298Z,32.60
2018-06-23T02:45:18.585Z,40.60
2018-06-23T02:47:50.593Z,35.20
2018-06-23T02:50:22.757Z,37.20
2018-06-23T02:52:55.563Z,37.40
2018-06-23T02:55:27.918Z,37.40
2018-06-23T02:58:00.060Z,33.40
2018-06-23T03:00:32.360Z,34.00
2018-06-23T03:03:04.557Z,34.60
2018-06-23T03:05:37.526Z,35.00
2018-06-23T03:08:10.162Z,33.40
2018-06-23T03:10:42.097Z,31.40
2018-06-23T03:13:14.514Z,33.00
2018-06-23T03:15:47.481Z,36.80
2018-06-23T03:18:19.696Z,36.40
2018-06-23T03:20:51.768Z,35.80
2018-06-23T03:23:24.775Z,32.20
2018-06-23T03:25:57.094Z,29.20
2018-06-23T03:28:29.428Z,27.40
2018-06-23T03:31:01.912Z,34.60
2018-06-23T03:33:33.869Z,35.60
2018-06-23T03:36:05.784Z,35.60
2018-06-23T03:38:37.782Z,31.20
2018-06-23T03:41:09.854Z,31.80
2018-06-23T03:43:42.059Z,33.60
2018-06-23T03:46:14.575Z,33.40
2018-06-23T03:48:46.908Z,36.60
2018-06-23T03:51:19.240Z,34.80
2018-06-23T03:53:51.536Z,34.60
2018-06-23T03:56:24.093Z,34.00
2018-06-23T03:58:56.698Z,30.80
2018-06-23T04:01:29.487Z,37.80
2018-06-23T04:04:01.942Z,31.20
2018-06-23T04:06:34.669Z,32.60
2018-06-23T04:09:09.717Z,34.60
2018-06-23T04:11:42.027Z,31.20
2018-06-23T04:14:14.279Z,29.40
2018-06-23T04:16:47.374Z,31.00
2018-06-23T04:19:19.879Z,32.60
2018-06-23T04:27:33.604Z,26.40
2018-06-23T04:30:07.065Z,37.20
2018-06-23T04:32:40.041Z,34.40
2018-06-23T04:35:11.951Z,29.40
2018-06-23T04:37:45.399Z,32.80
2018-06-23T04:40:18.671Z,40.00
2018-06-23T04:42:51.363Z,47.20
2018-06-23T04:45:23.892Z,33.20
2018-06-23T04:47:56.233Z,37.00
2018-06-23T04:50:28.796Z,34.60
2018-06-23T04:53:01.744Z,34.80
2018-06-23T04:55:34.794Z,39.80
2018-06-23T04:58:07.737Z,35.40
2018-06-23T05:00:40.596Z,31.00
2018-06-23T05:03:12.714Z,33.60
2018-06-23T05:05:44.986Z,35.40
2018-06-23T05:08:17.184Z,39.80
2018-06-23T05:10:49.710Z,35.40
2018-06-23T05:13:22.962Z,39.40
2018-06-23T05:15:55.581Z,32.80
2018-06-23T05:18:27.968Z,39.00
2018-06-23T05:20:59.893Z,31.20
2018-06-23T05:23:33.354Z,29.40
2018-06-23T05:26:05.928Z,33.00
2018-06-23T05:28:40.229Z,35.40
2018-06-23T05:31:13.098Z,33.60
2018-06-23T05:33:45.292Z,34.80
2018-06-23T05:36:18.345Z,38.00
2018-06-23T05:38:51.007Z,37.00
2018-06-23T05:41:23.668Z,35.60
2018-06-23T05:43:56.353Z,36.40
2018-06-23T05:46:29.792Z,39.00
2018-06-23T05:49:02.905Z,36.80
2018-06-23T05:51:35.504Z,36.20
2018-06-23T05:54:08.309Z,36.60
2018-06-23T05:56:40.656Z,40.20
2018-06-23T05:59:13.873Z,32.20
2018-06-23T06:01:46.968Z,38.20
2018-06-23T06:04:19.686Z,38.40
2018-06-23T06:06:52.578Z,37.80
2018-06-23T06:09:25.270Z,36.00
2018-06-23T06:11:57.527Z,33.40
2018-06-23T06:14:30.667Z,37.20
2018-06-23T06:17:40.766Z,35.60
2018-06-23T06:20:14.762Z,35.40
2018-06-23T06:22:47.933Z,34.60
2018-06-23T06:25:22.996Z,33.80
2018-06-23T06:27:55.993Z,36.60
2018-06-23T06:30:28.662Z,38.80
2018-06-23T06:33:01.076Z,36.40
2018-06-23T06:35:33.888Z,32.40
2018-06-23T06:38:06.664Z,37.20
2018-06-23T06:40:39.690Z,33.80
2018-06-23T06:43:11.869Z,34.00
2018-06-23T06:45:44.595Z,35.00
2018-06-23T06:48:16.875Z,33.80
2018-06-23T06:50:49.644Z,37.60
2018-06-23T06:53:23.515Z,37.60
2018-06-23T06:55:56.090Z,37.00
2018-06-23T06:58:28.958Z,34.20
2018-06-23T07:01:02.232Z,38.00
2018-06-23T07:03:34.753Z,35.80
2018-06-23T07:06:07.794Z,31.00
2018-06-23T07:08:40.223Z,35.00
2018-06-23T07:11:13.648Z,36.60
2018-06-23T07:13:46.580Z,34.00
2018-06-23T07:16:18.887Z,33.40
2018-06-23T07:18:51.701Z,37.60
2018-06-23T07:21:24.420Z,34.40
2018-06-23T07:23:57.112Z,35.80
2018-06-23T07:26:29.508Z,35.80
2018-06-23T07:29:02.238Z,36.60
2018-06-23T07:31:36.150Z,36.60
2018-06-23T07:34:09.226Z,37.20
2018-06-23T07:36:42.709Z,34.80
2018-06-23T07:39:15.863Z,35.40
2018-06-23T07:41:49.029Z,35.80
2018-06-23T07:44:22.366Z,33.20
2018-06-23T07:46:54.982Z,36.40
2018-06-23T07:49:27.065Z,35.60
2018-06-23T07:51:59.864Z,34.00
2018-06-23T07:54:32.063Z,32.60
2018-06-23T07:57:04.945Z,38.20
2018-06-23T07:59:37.648Z,34.20
2018-06-23T08:02:10.081Z,37.00
2018-06-23T08:04:42.391Z,35.20
2018-06-23T08:07:15.138Z,36.00
2018-06-23T08:09:47.812Z,37.40
2018-06-23T08:12:20.475Z,32.80
2018-06-23T08:14:53.384Z,38.00
2018-06-23T08:17:26.392Z,38.20
2018-06-23T08:19:59.724Z,34.20
2018-06-23T08:22:32.098Z,36.80
2018-06-23T08:25:05.046Z,37.00
2018-06-23T08:27:38.431Z,38.20
2018-06-23T08:30:11.547Z,43.40
2018-06-23T08:32:45.940Z,37.00
2018-06-23T08:35:19.172Z,38.20
2018-06-23T08:37:52.598Z,35.80
2018-06-23T08:40:25.633Z,35.00
2018-06-23T08:42:58.335Z,33.80
2018-06-23T08:45:30.834Z,35.60
2018-06-23T08:48:03.917Z,36.80
2018-06-23T08:50:36.667Z,38.00
2018-06-23T08:53:10.167Z,38.20
2018-06-23T08:55:42.841Z,36.40
2018-06-23T08:58:16.180Z,36.00
2018-06-23T09:00:49.803Z,36.00
2018-06-23T09:03:22.909Z,37.60
2018-06-23T09:05:55.737Z,37.80
2018-06-23T09:08:28.904Z,35.80
2018-06-23T09:11:01.728Z,34.40
2018-06-23T09:13:34.662Z,39.60
2018-06-23T09:16:08.358Z,41.60
2018-06-23T09:18:41.438Z,35.60
2018-06-23T09:21:14.453Z,40.00
2018-06-23T09:23:47.748Z,38.20
2018-06-23T09:26:21.231Z,36.00
2018-06-23T09:35:56.894Z,30.40
2018-06-23T09:38:30.224Z,38.80
2018-06-23T09:41:03.713Z,39.20
2018-06-23T09:43:36.572Z,39.60
2018-06-23T09:46:10.329Z,44.00
2018-06-23T09:48:43.809Z,39.60
2018-06-23T09:51:17.393Z,39.00
2018-06-23T09:53:49.950Z,38.20
2018-06-23T09:56:23.535Z,40.80
2018-06-23T09:58:57.020Z,42.80
2018-06-23T10:01:31.352Z,42.60
2018-06-23T10:04:04.804Z,41.00
2018-06-23T10:06:38.228Z,43.20
2018-06-23T10:09:12.809Z,44.00
2018-06-23T10:11:47.315Z,44.40
2018-06-23T10:14:20.511Z,40.00
2018-06-23T10:16:53.490Z,40.20
2018-06-23T10:19:26.765Z,43.80
2018-06-23T10:22:00.209Z,42.00
2018-06-23T10:24:33.431Z,41.20
2018-06-23T10:27:06.481Z,39.60
2018-06-23T10:29:39.726Z,43.00
2018-06-23T10:32:13.092Z,37.60
2018-06-23T10:34:45.961Z,43.80
2018-06-23T10:37:19.946Z,39.80
2018-06-23T10:39:53.003Z,43.00
2018-06-23T10:42:26.467Z,41.60
2018-06-23T10:44:59.955Z,41.60
2018-06-23T10:47:33.488Z,43.00
2018-06-23T10:50:07.311Z,40.40
2018-06-23T10:52:40.837Z,39.40
2018-06-23T10:55:13.842Z,43.20
2018-06-23T10:57:47.815Z,42.80
2018-06-23T11:00:20.680Z,42.40
2018-06-23T11:02:53.872Z,44.60
2018-06-23T11:05:26.917Z,43.60
2018-06-23T11:08:00.546Z,42.60
2018-06-23T11:10:33.836Z,39.80
2018-06-23T11:13:07.016Z,46.00
2018-06-23T11:15:40.412Z,53.60
2018-06-23T11:18:13.666Z,54.60
2018-06-23T11:20:46.885Z,54.60
2018-06-23T11:23:20.112Z,59.20
2018-06-23T11:25:53.315Z,56.20
2018-06-23T11:28:26.429Z,55.80
2018-06-23T11:30:59.562Z,54.80
2018-06-23T11:33:33.132Z,53.40
2018-06-23T11:36:06.860Z,51.80
2018-06-23T11:38:40.049Z,55.40
2018-06-23T11:41:12.799Z,54.60
2018-06-23T11:43:46.034Z,52.20
2018-06-23T11:46:18.962Z,54.60
2018-06-23T11:48:51.618Z,49.80
2018-06-23T11:51:24.468Z,53.20
2018-06-23T11:53:57.293Z,50.60
2018-06-23T11:56:30.719Z,51.60
2018-06-23T11:59:08.174Z,55.60
2018-06-23T12:01:43.082Z,50.60
2018-06-23T12:04:27.207Z,52.00
2018-06-23T12:07:00.360Z,52.60
2018-06-23T12:09:36.122Z,54.40
2018-06-23T12:12:09.668Z,50.20
2018-06-23T12:14:44.651Z,56.00
2018-06-23T12:17:17.818Z,48.20
2018-06-23T12:19:51.156Z,51.00
2018-06-23T12:22:24.585Z,50.20
2018-06-23T12:24:59.124Z,50.20
2018-06-23T12:27:32.980Z,48.40
2018-06-23T12:30:08.404Z,50.40
2018-06-23T12:32:43.898Z,48.40
2018-06-23T12:35:17.718Z,50.60
2018-06-23T12:37:50.864Z,49.40
2018-06-23T12:40:24.519Z,50.20
2018-06-23T12:42:57.605Z,48.40
2018-06-23T12:45:30.817Z,49.20
2018-06-23T12:48:03.744Z,50.00
2018-06-23T12:50:37.829Z,51.00
2018-06-23T12:53:11.049Z,50.40
2018-06-23T12:55:44.271Z,52.40
2018-06-23T12:58:18.205Z,50.80
2018-06-23T13:00:51.276Z,51.00
2018-06-23T13:03:24.631Z,52.00
2018-06-23T13:05:58.091Z,49.60
2018-06-23T13:08:31.076Z,54.00
2018-06-23T13:11:04.695Z,48.40
2018-06-23T13:13:38.090Z,55.80
2018-06-23T13:16:11.365Z,55.80
2018-06-23T13:18:44.185Z,54.40
2018-06-23T13:21:17.201Z,53.40
2018-06-23T13:23:50.678Z,55.00
2018-06-23T13:26:24.857Z,51.40
2018-06-23T13:28:57.862Z,51.60
2018-06-23T13:31:31.255Z,54.60
2018-06-23T13:34:05.705Z,51.60
2018-06-23T13:36:38.742Z,52.60
2018-06-23T13:39:12.480Z,54.40
2018-06-23T13:41:46.225Z,51.60
2018-06-23T13:44:19.446Z,58.80
2018-06-23T13:46:52.632Z,58.80
2018-06-23T13:49:25.792Z,57.80
2018-06-23T13:51:59.106Z,55.60
2018-06-23T13:54:32.377Z,56.00
2018-06-23T13:57:05.584Z,58.40
2018-06-23T13:59:39.727Z,57.00
2018-06-23T14:02:12.960Z,56.80
2018-06-23T14:04:45.767Z,54.80
2018-06-23T14:07:19.322Z,55.00
2018-06-23T14:09:52.768Z,56.40
2018-06-23T14:12:26.189Z,59.40
2018-06-23T14:14:59.407Z,56.00
2018-06-23T14:17:32.688Z,55.00
2018-06-23T14:20:05.842Z,56.40
2018-06-23T14:22:39.107Z,55.00
2018-06-23T14:25:12.728Z,58.00
2018-06-23T14:27:46.179Z,56.40
2018-06-23T14:30:19.328Z,59.80
2018-06-23T14:32:52.513Z,55.20
2018-06-23T14:35:25.589Z,57.20
2018-06-23T14:37:58.666Z,55.40
2018-06-23T14:40:31.702Z,60.00
2018-06-23T14:43:05.423Z,56.60
2018-06-23T14:45:38.372Z,58.20
2018-06-23T14:48:11.949Z,59.00
2018-06-23T14:50:45.294Z,57.00
2018-06-23T14:53:18.525Z,57.80
2018-06-23T14:55:51.722Z,56.40
2018-06-23T14:58:24.989Z,59.20
2018-06-23T15:00:58.056Z,57.60
2018-06-23T15:03:30.892Z,60.60
2018-06-23T15:06:08.824Z,59.60
2018-06-23T15:08:51.068Z,61.60
2018-06-23T15:11:32.745Z,61.40
2018-06-23T15:14:06.009Z,58.40
2018-06-23T15:16:39.330Z,62.60
2018-06-23T15:19:12.499Z,61.20
2018-06-23T15:21:45.644Z,59.40
2018-06-23T15:24:18.585Z,60.60
2018-06-23T15:26:51.720Z,61.80
2018-06-23T15:29:25.610Z,62.80
2018-06-23T15:32:01.967Z,62.40
2018-06-23T15:34:35.529Z,61.60
2018-06-23T15:37:08.709Z,60.00
2018-06-23T15:39:42.065Z,60.80
2018-06-23T15:42:15.239Z,63.60
2018-06-23T15:44:50.910Z,60.20
2018-06-23T15:47:29.904Z,60.40
2018-06-23T15:50:03.632Z,61.00
2018-06-23T15:52:36.970Z,63.00
2018-06-23T15:55:17.064Z,63.40
2018-06-23T15:57:50.427Z,62.20
2018-06-23T16:00:23.736Z,62.20
2018-06-23T16:02:59.368Z,62.00
2018-06-23T16:05:32.660Z,61.20
2018-06-23T16:08:13.731Z,62.20
2018-06-23T16:10:47.211Z,62.40
2018-06-23T16:13:21.069Z,64.60
2018-06-23T16:15:54.967Z,61.00
2018-06-23T16:18:28.436Z,62.20
2018-06-23T16:21:02.021Z,61.80
2018-06-23T16:23:38.462Z,62.00
2018-06-23T16:26:11.990Z,59.80
2018-06-23T16:28:45.442Z,62.20
2018-06-23T16:31:19.000Z,61.40
2018-06-23T16:33:52.245Z,63.00
2018-06-23T16:36:32.273Z,60.20
2018-06-23T16:39:06.590Z,62.00
2018-06-23T16:41:39.772Z,62.40
2018-06-23T16:44:13.284Z,63.20
2018-06-23T16:46:49.351Z,58.20
2018-06-23T16:49:22.978Z,61.80
2018-06-23T16:51:56.594Z,60.80
2018-06-23T16:54:29.806Z,61.80
2018-06-23T16:57:02.963Z,60.40
2018-06-23T16:59:35.858Z,60.80
2018-06-23T17:02:09.340Z,59.00
2018-06-23T17:04:44.044Z,61.00
2018-06-23T17:07:18.755Z,60.80
2018-06-23T17:09:52.212Z,60.20
2018-06-23T17:12:25.744Z,61.60
2018-06-23T17:14:59.295Z,61.00
2018-06-23T17:17:34.043Z,64.60
2018-06-23T17:20:09.249Z,62.20
2018-06-23T17:22:42.797Z,61.20
2018-06-23T17:25:16.093Z,59.40
2018-06-23T17:27:51.869Z,59.80
2018-06-23T17:30:27.406Z,60.40
2018-06-23T17:33:00.767Z,60.00
2018-06-23T17:35:34.436Z,62.80
2018-06-23T17:38:09.377Z,61.00
2018-06-23T17:40:42.728Z,59.60
2018-06-23T17:43:17.190Z,58.80
2018-06-23T17:45:52.015Z,58.80
2018-06-23T17:48:25.562Z,58.80
2018-06-23T17:50:58.805Z,62.60
2018-06-23T17:53:33.150Z,60.40
2018-06-23T17:56:08.232Z,62.00
2018-06-23T17:58:43.666Z,61.40
2018-06-23T18:01:17.104Z,62.60
2018-06-23T18:03:50.700Z,68.40
2018-06-23T18:06:26.403Z,59.20
2018-06-23T18:09:00.111Z,62.60
2018-06-23T18:11:34.288Z,61.00
2018-06-23T18:14:08.955Z,64.40
2018-06-23T18:16:42.451Z,60.40
2018-06-23T18:19:16.225Z,63.60
2018-06-23T18:21:50.704Z,61.40
2018-06-23T18:24:24.173Z,56.60
2018-06-23T18:26:59.004Z,58.60
2018-06-23T18:29:33.966Z,58.00
2018-06-23T18:32:07.189Z,59.80
2018-06-23T18:34:40.254Z,59.40
2018-06-23T18:37:13.528Z,60.40
2018-06-23T18:39:46.524Z,60.00
2018-06-23T18:42:19.662Z,59.00
2018-06-23T18:44:52.988Z,60.00
2018-06-23T18:47:25.917Z,59.00
2018-06-23T18:49:59.648Z,58.60
2018-06-23T18:52:32.624Z,59.60
2018-06-23T18:55:05.784Z,55.00
2018-06-23T18:57:39.432Z,62.00
2018-06-23T19:00:12.322Z,60.00
2018-06-23T19:02:45.397Z,59.80
2018-06-23T19:05:18.746Z,56.00
2018-06-23T19:07:51.655Z,58.60
2018-06-23T19:10:25.132Z,58.60
2018-06-23T19:12:58.101Z,56.40
2018-06-23T19:15:30.480Z,51.80
2018-06-23T19:18:03.580Z,57.60
2018-06-23T19:20:36.339Z,60.60
2018-06-23T19:23:09.226Z,56.20
2018-06-23T19:25:43.017Z,58.80
2018-06-23T19:28:17.077Z,61.00
2018-06-23T19:30:50.671Z,59.00
2018-06-23T19:33:23.798Z,58.60
2018-06-23T19:35:57.042Z,62.60
2018-06-23T19:38:30.292Z,61.00
2018-06-23T19:41:03.546Z,59.60
2018-06-23T19:43:36.495Z,61.20
2018-06-23T19:46:09.890Z,61.60
2018-06-23T19:48:43.611Z,64.00
2018-06-23T19:51:17.017Z,58.60
2018-06-23T19:53:50.140Z,61.60
2018-06-23T19:56:23.233Z,62.00
2018-06-23T19:58:56.284Z,63.00
2018-06-23T20:01:29.345Z,59.00
2018-06-23T20:04:02.531Z,60.20
2018-06-23T20:06:35.230Z,57.80
2018-06-23T20:09:11.189Z,59.80
2018-06-23T20:11:43.885Z,56.00
2018-06-23T20:14:16.920Z,61.00
2018-06-23T20:16:50.257Z,59.60
2018-06-23T20:19:22.879Z,61.60
2018-06-23T20:21:55.815Z,56.60
2018-06-23T20:24:29.307Z,58.60
2018-06-23T20:27:02.218Z,61.40
2018-06-23T20:29:35.083Z,62.00
2018-06-23T20:32:08.192Z,60.40
2018-06-23T20:34:41.221Z,61.60
2018-06-23T20:37:14.038Z,65.00
2018-06-23T20:39:46.906Z,61.80
2018-06-23T20:42:19.639Z,64.20
2018-06-23T20:44:52.652Z,64.00
2018-06-23T20:47:25.165Z,62.20
2018-06-23T20:49:58.395Z,59.40
2018-06-23T20:52:30.728Z,59.80
2018-06-23T20:55:03.850Z,60.80
2018-06-23T20:57:36.955Z,62.00
2018-06-23T21:00:10.274Z,61.40
2018-06-23T21:02:43.382Z,61.20
2018-06-23T21:05:16.545Z,60.80
2018-06-23T21:07:49.342Z,62.00
2018-06-23T21:10:32.714Z,59.60
2018-06-23T21:13:04.992Z,58.40
2018-06-23T21:15:38.524Z,62.00
2018-06-23T21:18:11.563Z,59.40
2018-06-23T21:20:44.805Z,60.40
2018-06-23T21:23:17.516Z,63.60
2018-06-23T21:25:50.466Z,60.80
2018-06-23T21:28:23.383Z,58.60
2018-06-23T21:30:56.432Z,61.80
2018-06-23T21:33:29.712Z,60.20
2018-06-23T21:36:02.871Z,63.80
2018-06-23T21:38:35.113Z,61.20
2018-06-23T21:41:07.916Z,60.60
2018-06-23T21:43:40.723Z,62.20
2018-06-23T21:46:14.667Z,64.60
2018-06-23T21:48:47.682Z,62.80
2018-06-23T21:51:20.475Z,62.00
2018-06-23T21:53:53.534Z,64.20
2018-06-23T21:56:26.328Z,68.80
2018-06-23T21:58:59.793Z,69.20
2018-06-23T22:01:33.370Z,69.40
2018-06-23T22:04:06.695Z,71.20
2018-06-23T22:06:39.862Z,69.20
2018-06-23T22:09:13.330Z,70.20
2018-06-23T22:11:47.516Z,71.20
2018-06-23T22:14:20.333Z,68.80
2018-06-23T22:16:53.393Z,68.40
2018-06-23T22:19:26.188Z,66.80
2018-06-23T22:21:59.204Z,69.60
2018-06-23T22:24:32.038Z,69.40
2018-06-23T22:27:04.935Z,68.20
2018-06-23T22:29:37.504Z,71.00
2018-06-23T22:32:09.979Z,68.40
2018-06-23T22:34:42.838Z,67.60
2018-06-23T22:37:15.482Z,69.00
2018-06-23T22:39:48.450Z,73.20
2018-06-23T22:42:22.503Z,72.80
2018-06-23T22:44:54.925Z,72.00
2018-06-23T22:47:27.855Z,74.00
2018-06-23T22:50:00.384Z,74.00
2018-06-23T22:52:33.289Z,71.60
2018-06-23T22:55:05.650Z,74.20
2018-06-23T22:57:38.424Z,73.20
2018-06-23T23:00:15.715Z,73.20
2018-06-23T23:02:48.548Z,78.60
2018-06-23T23:05:21.084Z,73.60
2018-06-23T23:07:54.274Z,71.00
2018-06-23T23:10:26.895Z,78.80
2018-06-23T23:13:00.532Z,75.40
2018-06-23T23:15:33.320Z,77.40
2018-06-23T23:18:06.348Z,72.20
2018-06-23T23:20:39.528Z,76.80
2018-06-23T23:23:12.598Z,75.00
2018-06-23T23:25:45.368Z,76.80
2018-06-23T23:28:18.142Z,72.80
2018-06-23T23:30:50.388Z,75.20
2018-06-23T23:33:23.256Z,73.60
2018-06-23T23:35:56.308Z,77.40
2018-06-23T23:38:28.672Z,76.40
2018-06-23T23:41:01.019Z,74.40
2018-06-23T23:43:33.801Z,77.80
2018-06-23T23:46:06.837Z,78.00
2018-06-23T23:48:39.013Z,74.60
2018-06-23T23:51:12.030Z,79.60
2018-06-23T23:53:45.062Z,77.00
2018-06-23T23:56:17.644Z,75.60
2018-06-23T23:58:50.772Z,77.80
